createdAt,value
2023-01-11T00:00:02.967Z,20.55
2023-01-11T00:01:08.983Z,12.80
2023-01-11T00:02:11.630Z,9.77
2023-01-11T00:03:17.584Z,8.23
2023-01-11T00:04:30.858Z,11.55
2023-01-11T00:05:37.198Z,12.52
2023-01-11T00:06:43.164Z,9.20
2023-01-11T00:07:45.496Z,15.02
2023-01-11T00:08:50.332Z,9.00
2023-01-11T00:09:52.771Z,8.15
2023-01-11T00:11:01.207Z,13.13
2023-01-11T00:12:06.613Z,11.80
2023-01-11T00:13:11.895Z,12.02
2023-01-11T00:14:15.280Z,11.50
2023-01-11T00:15:20.619Z,13.27
2023-01-11T00:16:23.000Z,10.38
2023-01-11T00:17:28.783Z,12.95
2023-01-11T00:18:31.162Z,16.48
2023-01-11T00:19:36.710Z,10.57
2023-01-11T00:20:40.354Z,7.63
2023-01-11T00:21:46.763Z,9.52
2023-01-11T00:22:49.446Z,14.27
2023-01-11T00:23:54.999Z,17.88
2023-01-11T00:24:57.510Z,16.73
2023-01-11T00:26:02.871Z,15.35
2023-01-11T00:27:07.804Z,9.35
2023-01-11T00:28:12.968Z,12.15
2023-01-11T00:29:15.452Z,7.85
2023-01-11T00:30:21.250Z,10.65
2023-01-11T00:31:23.843Z,14.23
2023-01-11T00:32:30.032Z,11.63
2023-01-11T00:33:32.619Z,13.73
2023-01-11T00:34:38.161Z,9.25
2023-01-11T00:35:40.655Z,10.57
2023-01-11T00:36:45.919Z,9.38
2023-01-11T00:37:49.573Z,7.00
2023-01-11T00:38:55.873Z,11.10
2023-01-11T00:39:58.296Z,16.52
2023-01-11T00:41:24.404Z,5.22
2023-01-11T00:42:44.756Z,6.40
2023-01-11T00:44:02.270Z,5.57
2023-01-11T00:45:20.470Z,4.18
2023-01-11T00:46:49.669Z,4.70
2023-01-11T00:48:01.303Z,8.55
2023-01-11T00:50:09.974Z,5.00
2023-01-11T00:51:12.303Z,6.10
2023-01-11T00:52:17.343Z,12.63
2023-01-11T00:53:22.445Z,5.68
2023-01-11T00:54:25.257Z,3.08
2023-01-11T00:55:33.746Z,9.80
2023-01-11T00:56:36.514Z,4.70
2023-01-11T00:57:44.456Z,5.45
2023-01-11T00:58:46.634Z,6.90
2023-01-11T00:59:51.479Z,8.50
2023-01-11T01:00:53.971Z,7.28
2023-01-11T01:01:58.758Z,6.03
2023-01-11T01:03:06.611Z,7.10
2023-01-11T01:04:08.911Z,3.67
2023-01-11T01:05:14.628Z,4.82
2023-01-11T01:06:17.269Z,6.80
2023-01-11T01:07:22.614Z,9.98
2023-01-11T01:08:25.099Z,3.58
2023-01-11T01:09:31.692Z,6.20
2023-01-11T01:10:33.962Z,8.63
2023-01-11T01:11:39.371Z,18.15
2023-01-11T01:13:00.293Z,12.32
2023-01-11T01:14:17.836Z,14.10
2023-01-11T01:15:23.806Z,10.95
2023-01-11T01:16:26.075Z,7.78
2023-01-11T01:17:37.264Z,4.65
2023-01-11T01:18:39.684Z,5.13
2023-01-11T01:19:45.205Z,7.63
2023-01-11T01:20:50.696Z,6.20
2023-01-11T01:21:55.838Z,11.35
2023-01-11T01:22:58.347Z,6.20
2023-01-11T01:24:03.971Z,7.85
2023-01-11T01:25:06.966Z,11.48
2023-01-11T01:26:12.434Z,10.98
2023-01-11T01:27:18.103Z,4.70
2023-01-11T01:28:27.141Z,10.23
2023-01-11T01:29:30.172Z,5.32
2023-01-11T01:30:35.250Z,5.20
2023-01-11T01:31:37.561Z,4.88
2023-01-11T01:32:45.076Z,8.13
2023-01-11T01:33:47.313Z,7.38
2023-01-11T01:34:52.525Z,7.20
2023-01-11T01:35:54.902Z,7.03
2023-01-11T01:37:00.044Z,3.58
2023-01-11T01:38:02.496Z,3.35
2023-01-11T01:39:09.662Z,6.72
2023-01-11T01:40:13.274Z,11.63
2023-01-11T01:41:19.505Z,6.93
2023-01-11T01:42:22.600Z,5.25
2023-01-11T01:43:51.062Z,3.15
2023-01-11T01:45:02.962Z,8.30
2023-01-11T01:46:11.315Z,6.45
2023-01-11T01:47:14.422Z,9.43
2023-01-11T01:48:23.756Z,6.05
2023-01-11T01:49:26.035Z,5.03
2023-01-11T01:50:36.777Z,5.50
2023-01-11T01:51:44.944Z,7.43
2023-01-11T01:52:53.678Z,4.20
2023-01-11T01:53:59.524Z,6.10
2023-01-11T01:55:09.366Z,9.32
2023-01-11T01:56:16.458Z,6.70
2023-01-11T01:57:26.253Z,5.95
2023-01-11T01:58:37.210Z,7.82
2023-01-11T01:59:42.539Z,6.43
2023-01-11T02:00:46.670Z,5.32
2023-01-11T02:01:53.404Z,4.07
2023-01-11T02:02:58.187Z,8.18
2023-01-11T02:04:04.662Z,7.20
2023-01-11T02:05:09.437Z,11.60
2023-01-11T02:06:14.874Z,2.53
2023-01-11T02:07:20.153Z,3.97
2023-01-11T02:08:32.741Z,7.10
2023-01-11T02:09:41.932Z,11.63
2023-01-11T02:10:47.597Z,6.30
2023-01-11T02:11:52.651Z,2.22
2023-01-11T02:13:01.979Z,3.05
2023-01-11T02:14:12.372Z,4.82
2023-01-11T02:15:19.540Z,11.85
2023-01-11T02:16:21.713Z,3.20
2023-01-11T02:17:28.094Z,6.85
2023-01-11T02:18:30.541Z,4.88
2023-01-11T02:19:52.731Z,3.25
2023-01-11T02:21:09.872Z,5.75
2023-01-11T02:22:50.934Z,9.55
2023-01-11T02:24:22.556Z,7.50
2023-01-11T02:25:54.028Z,7.95
2023-01-11T02:27:29.054Z,4.40
2023-01-11T02:28:42.482Z,5.13
2023-01-11T02:29:59.327Z,4.88
2023-01-11T02:31:11.585Z,4.38
2023-01-11T02:32:29.006Z,10.38
2023-01-11T02:33:42.251Z,4.82
2023-01-11T02:34:53.797Z,5.20
2023-01-11T02:36:06.078Z,6.88
2023-01-11T02:37:19.824Z,7.75
2023-01-11T02:38:29.105Z,8.30
2023-01-11T02:39:44.845Z,12.10
2023-01-11T02:40:54.933Z,4.15
2023-01-11T02:42:20.475Z,5.50
2023-01-11T02:43:43.822Z,3.60
2023-01-11T02:45:07.322Z,5.00
2023-01-11T02:46:13.638Z,4.68
2023-01-11T02:47:22.070Z,7.43
2023-01-11T02:48:35.262Z,10.20
2023-01-11T02:49:44.191Z,4.80
2023-01-11T02:50:55.727Z,4.22
2023-01-11T02:53:13.657Z,2.53
2023-01-11T02:54:20.467Z,3.90
2023-01-11T02:55:30.832Z,7.80
2023-01-11T02:56:36.830Z,4.03
2023-01-11T02:57:43.785Z,4.25
2023-01-11T02:58:48.946Z,9.32
2023-01-11T03:00:00.636Z,8.52
2023-01-11T03:01:04.493Z,3.53
2023-01-11T03:02:10.121Z,4.97
2023-01-11T03:03:16.005Z,5.35
2023-01-11T03:04:30.966Z,4.75
2023-01-11T03:05:35.205Z,5.53
2023-01-11T03:06:41.109Z,5.32
2023-01-11T03:07:58.836Z,8.82
2023-01-11T03:09:18.060Z,3.83
2023-01-11T03:10:38.671Z,9.30
2023-01-11T03:12:09.041Z,5.03
2023-01-11T03:13:25.257Z,2.85
2023-01-11T03:14:36.173Z,5.40
2023-01-11T03:16:01.652Z,6.95
2023-01-11T03:17:12.573Z,3.10
2023-01-11T03:18:40.241Z,5.20
2023-01-11T03:19:47.925Z,5.25
2023-01-11T03:20:57.866Z,1.63
2023-01-11T03:22:06.417Z,5.88
2023-01-11T03:23:19.075Z,5.97
2023-01-11T03:24:31.782Z,5.43
2023-01-11T03:25:46.329Z,6.85
2023-01-11T03:27:03.880Z,7.35
2023-01-11T03:28:16.794Z,6.85
2023-01-11T03:29:28.431Z,2.65
2023-01-11T03:31:49.317Z,4.40
2023-01-11T03:33:01.877Z,2.88
2023-01-11T03:34:11.880Z,1.65
2023-01-11T03:35:23.756Z,4.95
2023-01-11T03:36:32.271Z,6.97
2023-01-11T03:37:43.662Z,5.80
2023-01-11T03:38:51.389Z,3.17
2023-01-11T03:40:04.389Z,2.53
2023-01-11T03:41:11.058Z,2.90
2023-01-11T03:42:20.254Z,2.05
2023-01-11T03:43:25.550Z,9.63
2023-01-11T03:44:35.596Z,4.38
2023-01-11T03:45:43.837Z,2.83
2023-01-11T03:46:55.479Z,4.78
2023-01-11T03:49:08.642Z,4.03
2023-01-11T03:50:13.356Z,8.02
2023-01-11T03:51:25.525Z,3.45
2023-01-11T03:52:32.340Z,3.97
2023-01-11T03:53:41.505Z,5.93
2023-01-11T03:54:45.299Z,4.13
2023-01-11T03:55:53.382Z,6.82
2023-01-11T03:57:06.158Z,3.17
2023-01-11T03:58:09.750Z,2.65
2023-01-11T03:59:15.273Z,6.47
2023-01-11T04:00:21.613Z,2.80
2023-01-11T04:01:25.265Z,4.63
2023-01-11T04:02:39.740Z,6.93
2023-01-11T04:03:42.505Z,11.93
2023-01-11T04:04:48.475Z,6.30
2023-01-11T04:05:55.249Z,3.13
2023-01-11T04:07:00.917Z,4.53
2023-01-11T04:08:03.515Z,2.97
2023-01-11T04:09:09.697Z,5.30
2023-01-11T04:10:12.787Z,2.85
2023-01-11T04:11:18.205Z,2.45
2023-01-11T04:12:20.320Z,3.30
2023-01-11T04:13:25.642Z,4.80
2023-01-11T04:14:28.297Z,2.78
2023-01-11T04:15:35.624Z,4.00
2023-01-11T04:16:38.337Z,3.10
2023-01-11T04:17:47.209Z,2.33
2023-01-11T04:18:49.879Z,3.95
2023-01-11T04:19:55.909Z,3.15
2023-01-11T04:20:58.172Z,3.33
2023-01-11T04:22:03.285Z,4.18
2023-01-11T04:23:06.819Z,4.60
2023-01-11T04:24:13.749Z,4.50
2023-01-11T04:25:16.416Z,3.00
2023-01-11T04:26:21.534Z,40.58
2023-01-11T04:27:23.954Z,31.42
2023-01-11T04:28:31.625Z,24.58
2023-01-11T04:29:33.778Z,7.88
2023-01-11T04:30:39.317Z,10.00
2023-01-11T04:31:41.733Z,9.43
2023-01-11T04:32:50.822Z,5.13
2023-01-11T04:33:53.291Z,8.10
2023-01-11T04:34:58.644Z,5.50
2023-01-11T04:36:05.447Z,11.70
2023-01-11T04:37:12.168Z,13.35
2023-01-11T04:38:14.996Z,15.90
2023-01-11T04:39:20.241Z,5.65
2023-01-11T04:40:22.768Z,6.47
2023-01-11T04:41:40.342Z,3.08
2023-01-11T04:42:47.841Z,7.32
2023-01-11T04:43:50.389Z,5.25
2023-01-11T04:44:56.608Z,1.88
2023-01-11T04:45:59.000Z,2.95
2023-01-11T04:47:04.685Z,4.20
2023-01-11T04:48:10.755Z,2.65
2023-01-11T04:49:16.200Z,6.72
2023-01-11T04:50:18.780Z,2.50
2023-01-11T04:51:24.438Z,4.57
2023-01-11T04:52:26.934Z,5.47
2023-01-11T04:53:34.513Z,1.75
2023-01-11T04:54:36.598Z,6.55
2023-01-11T04:55:42.446Z,9.10
2023-01-11T04:56:44.603Z,9.55
2023-01-11T04:57:50.433Z,8.27
2023-01-11T04:58:53.258Z,3.30
2023-01-11T04:59:59.683Z,13.07
2023-01-11T05:01:02.493Z,9.93
2023-01-11T05:02:08.193Z,6.32
2023-01-11T05:03:14.843Z,2.47
2023-01-11T05:04:19.826Z,2.60
2023-01-11T05:05:22.396Z,1.85
2023-01-11T05:06:27.209Z,8.35
2023-01-11T05:07:30.006Z,3.28
2023-01-11T05:08:36.872Z,5.38
2023-01-11T05:09:41.407Z,4.70
2023-01-11T05:10:47.458Z,2.10
2023-01-11T05:11:50.138Z,4.97
2023-01-11T05:12:55.118Z,3.83
2023-01-11T05:14:00.683Z,3.40
2023-01-11T05:15:06.095Z,3.83
2023-01-11T05:16:09.867Z,3.53
2023-01-11T05:17:17.600Z,2.67
2023-01-11T05:18:23.931Z,4.13
2023-01-11T05:19:29.063Z,3.85
2023-01-11T05:20:31.376Z,2.30
2023-01-11T05:21:39.741Z,3.03
2023-01-11T05:22:42.253Z,3.80
2023-01-11T05:23:47.716Z,3.42
2023-01-11T05:24:52.857Z,3.17
2023-01-11T05:25:55.216Z,3.28
2023-01-11T05:27:00.649Z,2.05
2023-01-11T05:28:03.186Z,2.13
2023-01-11T05:29:10.305Z,4.63
2023-01-11T05:30:13.365Z,1.25
2023-01-11T05:31:19.556Z,4.15
2023-01-11T05:32:25.052Z,3.00
2023-01-11T05:33:30.668Z,5.13
2023-01-11T05:34:36.115Z,2.13
2023-01-11T05:35:38.915Z,2.33
2023-01-11T05:36:45.357Z,3.10
2023-01-11T05:37:47.513Z,2.63
2023-01-11T05:38:54.728Z,6.00
2023-01-11T05:39:57.171Z,5.30
2023-01-11T05:41:06.316Z,4.00
2023-01-11T05:42:11.857Z,5.80
2023-01-11T05:43:14.426Z,4.85
2023-01-11T05:44:31.543Z,2.70
2023-01-11T05:45:33.919Z,4.50
2023-01-11T05:46:41.073Z,2.85
2023-01-11T05:47:43.345Z,2.08
2023-01-11T05:48:57.581Z,2.50
2023-01-11T05:50:02.804Z,3.55
2023-01-11T05:51:05.966Z,2.80
2023-01-11T05:52:12.637Z,2.13
2023-01-11T05:53:16.194Z,2.30
2023-01-11T05:54:23.910Z,2.28
2023-01-11T05:55:27.812Z,8.10
2023-01-11T05:56:33.546Z,4.95
2023-01-11T05:57:36.547Z,3.83
2023-01-11T05:58:44.656Z,5.13
2023-01-11T05:59:50.147Z,17.10
2023-01-11T06:00:54.059Z,8.65
2023-01-11T06:01:59.337Z,13.13
2023-01-11T06:03:05.306Z,36.78
2023-01-11T06:04:22.029Z,27.92
2023-01-11T06:05:26.352Z,12.43
2023-01-11T06:06:37.262Z,2.78
2023-01-11T06:07:42.767Z,8.95
2023-01-11T06:08:50.734Z,1.70
2023-01-11T06:10:01.543Z,3.65
2023-01-11T06:11:05.279Z,3.85
2023-01-11T06:12:14.245Z,4.75
2023-01-11T06:13:27.637Z,2.03
2023-01-11T06:14:33.438Z,2.15
2023-01-11T06:15:37.055Z,5.20
2023-01-11T06:16:50.173Z,3.38
2023-01-11T06:17:52.910Z,1.67
2023-01-11T06:18:59.941Z,2.92
2023-01-11T06:20:32.408Z,4.60
2023-01-11T06:21:42.244Z,3.90
2023-01-11T06:22:44.863Z,1.20
2023-01-11T06:23:54.714Z,5.20
2023-01-11T06:25:01.676Z,6.88
2023-01-11T06:26:09.888Z,4.30
2023-01-11T06:27:12.326Z,3.95
2023-01-11T06:28:18.035Z,4.47
2023-01-11T06:29:20.447Z,2.53
2023-01-11T06:30:28.715Z,5.38
2023-01-11T06:31:35.716Z,3.15
2023-01-11T06:32:38.162Z,6.43
2023-01-11T06:33:43.241Z,2.85
2023-01-11T06:34:48.795Z,1.35
2023-01-11T06:35:51.886Z,2.47
2023-01-11T06:36:59.774Z,2.08
2023-01-11T06:38:02.180Z,3.72
2023-01-11T06:39:07.818Z,2.78
2023-01-11T06:40:11.965Z,2.97
2023-01-11T06:41:17.437Z,1.00
2023-01-11T06:42:19.833Z,2.10
2023-01-11T06:43:28.622Z,3.72
2023-01-11T06:44:31.190Z,2.17
2023-01-11T06:45:39.065Z,3.60
2023-01-11T06:46:44.432Z,1.50
2023-01-11T06:47:46.825Z,4.45
2023-01-11T06:48:52.347Z,4.03
2023-01-11T06:49:54.753Z,2.28
2023-01-11T06:51:01.267Z,3.42
2023-01-11T06:52:06.776Z,3.65
2023-01-11T06:53:12.459Z,3.28
2023-01-11T06:54:22.583Z,3.65
2023-01-11T06:55:26.123Z,2.38
2023-01-11T06:56:31.516Z,3.65
2023-01-11T06:57:34.392Z,3.90
2023-01-11T06:58:45.587Z,2.88
2023-01-11T06:59:52.477Z,2.83
2023-01-11T07:00:57.447Z,3.60
2023-01-11T07:02:02.763Z,3.05
2023-01-11T07:03:06.697Z,19.83
2023-01-11T07:04:13.869Z,6.40
2023-01-11T07:05:19.349Z,7.95
2023-01-11T07:06:25.223Z,5.55
2023-01-11T07:07:30.413Z,4.93
2023-01-11T07:08:35.897Z,4.25
2023-01-11T07:09:38.533Z,2.20
2023-01-11T07:10:43.892Z,2.90
2023-01-11T07:11:48.987Z,1.77
2023-01-11T07:12:52.052Z,2.40
2023-01-11T07:13:57.659Z,3.63
2023-01-11T07:15:01.520Z,2.63
2023-01-11T07:16:07.074Z,1.77
2023-01-11T07:17:12.404Z,2.75
2023-01-11T07:18:17.884Z,3.95
2023-01-11T07:19:22.740Z,2.95
2023-01-11T07:20:25.709Z,4.85
2023-01-11T07:21:31.220Z,18.17
2023-01-11T07:22:37.285Z,27.40
2023-01-11T07:23:42.183Z,13.75
2023-01-11T07:24:46.434Z,10.18
2023-01-11T07:25:53.398Z,17.67
2023-01-11T07:26:56.859Z,21.40
2023-01-11T07:28:02.917Z,8.98
2023-01-11T07:29:05.282Z,9.23
2023-01-11T07:30:14.964Z,7.05
2023-01-11T07:31:21.207Z,5.00
2023-01-11T07:32:23.427Z,6.40
2023-01-11T07:33:29.224Z,8.68
2023-01-11T07:34:31.988Z,4.40
2023-01-11T07:35:38.496Z,6.07
2023-01-11T07:36:40.894Z,2.85
2023-01-11T07:37:50.647Z,3.58
2023-01-11T07:38:55.937Z,3.50
2023-01-11T07:39:58.501Z,6.45
2023-01-11T07:41:24.165Z,5.28
2023-01-11T07:42:41.922Z,8.25
2023-01-11T07:43:44.157Z,8.45
2023-01-11T07:44:47.056Z,7.13
2023-01-11T07:45:55.912Z,3.85
2023-01-11T07:46:58.848Z,4.00
2023-01-11T07:48:04.269Z,7.10
2023-01-11T07:49:06.844Z,4.20
2023-01-11T07:50:13.839Z,3.90
2023-01-11T07:51:24.669Z,7.35
2023-01-11T07:52:27.040Z,5.13
2023-01-11T07:53:35.866Z,8.77
2023-01-11T07:54:38.916Z,7.82
2023-01-11T07:55:44.452Z,6.78
2023-01-11T07:56:50.004Z,3.28
2023-01-11T07:57:57.626Z,5.50
2023-01-11T07:59:00.383Z,5.70
2023-01-11T08:00:06.797Z,4.03
2023-01-11T08:01:09.541Z,3.35
2023-01-11T08:02:15.364Z,3.63
2023-01-11T08:03:20.998Z,2.35
2023-01-11T08:04:23.647Z,3.20
2023-01-11T08:05:28.928Z,9.55
2023-01-11T08:06:31.342Z,9.07
2023-01-11T08:07:38.129Z,8.30
2023-01-11T08:08:47.046Z,4.45
2023-01-11T08:09:49.500Z,6.13
2023-01-11T08:11:08.318Z,6.28
2023-01-11T08:12:25.680Z,5.78
2023-01-11T08:13:42.986Z,3.72
2023-01-11T08:14:48.144Z,10.15
2023-01-11T08:15:53.746Z,2.97
2023-01-11T08:16:56.307Z,2.80
2023-01-11T08:18:02.210Z,3.28
2023-01-11T08:19:04.908Z,3.33
2023-01-11T08:20:10.871Z,5.53
2023-01-11T08:21:16.578Z,5.05
2023-01-11T08:22:22.082Z,5.88
2023-01-11T08:23:27.842Z,2.28
2023-01-11T08:24:34.137Z,3.80
2023-01-11T08:25:39.956Z,4.82
2023-01-11T08:26:42.273Z,2.35
2023-01-11T08:27:48.469Z,3.83
2023-01-11T08:28:54.212Z,5.47
2023-01-11T08:29:59.641Z,3.70
2023-01-11T08:31:11.003Z,6.68
2023-01-11T08:32:16.948Z,2.22
2023-01-11T08:33:22.848Z,3.42
2023-01-11T08:34:26.232Z,3.80
2023-01-11T08:35:32.495Z,16.73
2023-01-11T08:36:35.146Z,26.65
2023-01-11T08:37:40.787Z,28.08
2023-01-11T08:38:44.699Z,29.25
2023-01-11T08:39:56.455Z,24.92
2023-01-11T08:41:01.826Z,20.85
2023-01-11T08:42:04.678Z,51.67
2023-01-11T08:43:12.634Z,80.30
2023-01-11T08:44:29.076Z,48.13
2023-01-11T08:45:38.702Z,30.77
2023-01-11T08:46:41.410Z,63.10
2023-01-11T08:47:47.486Z,45.80
2023-01-11T08:48:50.575Z,39.20
2023-01-11T08:49:58.479Z,62.83
2023-01-11T08:51:01.119Z,39.15
2023-01-11T08:52:07.056Z,19.65
2023-01-11T08:53:12.143Z,25.77
2023-01-11T08:54:18.427Z,22.80
2023-01-11T08:55:27.348Z,44.35
2023-01-11T08:56:29.730Z,23.30
2023-01-11T08:57:35.908Z,10.93
2023-01-11T08:58:38.464Z,6.95
2023-01-11T08:59:46.266Z,4.32
2023-01-11T09:00:48.885Z,3.63
2023-01-11T09:01:56.777Z,9.75
2023-01-11T09:03:04.183Z,9.90
2023-01-11T09:04:15.774Z,25.70
2023-01-11T09:05:25.496Z,13.65
2023-01-11T09:06:30.810Z,4.30
2023-01-11T09:07:36.553Z,5.93
2023-01-11T09:08:39.132Z,2.67
2023-01-11T09:09:44.647Z,2.53
2023-01-11T09:10:52.359Z,2.17
2023-01-11T09:12:00.666Z,2.40
2023-01-11T09:13:03.175Z,4.43
2023-01-11T09:14:09.017Z,7.68
2023-01-11T09:15:15.846Z,16.00
2023-01-11T09:16:18.640Z,5.80
2023-01-11T09:17:24.731Z,6.40
2023-01-11T09:18:27.613Z,6.75
2023-01-11T09:19:35.423Z,9.55
2023-01-11T09:20:37.574Z,8.65
2023-01-11T09:21:42.905Z,5.10
2023-01-11T09:22:52.728Z,6.60
2023-01-11T09:23:55.288Z,5.10
2023-01-11T09:25:03.154Z,6.18
2023-01-11T09:26:11.552Z,2.38
2023-01-11T09:27:16.895Z,6.60
2023-01-11T09:28:19.862Z,3.53
2023-01-11T09:29:25.850Z,4.32
2023-01-11T09:30:28.338Z,3.83
2023-01-11T09:31:33.987Z,2.95
2023-01-11T09:32:41.648Z,1.65
2023-01-11T09:33:44.002Z,2.30
2023-01-11T09:34:50.146Z,3.28
2023-01-11T09:35:53.139Z,5.10
2023-01-11T09:37:02.713Z,2.65
2023-01-11T09:38:05.235Z,4.97
2023-01-11T09:39:16.431Z,4.32
2023-01-11T09:40:22.801Z,8.25
2023-01-11T09:41:43.435Z,21.42
2023-01-11T09:42:53.210Z,19.23
2023-01-11T09:44:04.498Z,12.27
2023-01-11T09:45:17.869Z,11.88
2023-01-11T09:46:20.639Z,7.50
2023-01-11T09:47:37.159Z,4.82
2023-01-11T09:48:48.013Z,4.35
2023-01-11T09:50:00.839Z,4.80
2023-01-11T09:51:07.484Z,4.25
2023-01-11T09:52:24.360Z,3.00
2023-01-11T09:53:36.551Z,6.30
2023-01-11T09:54:42.305Z,4.38
2023-01-11T09:55:52.665Z,5.60
2023-01-11T09:57:16.678Z,4.80
2023-01-11T09:58:43.747Z,3.67
2023-01-11T09:59:54.614Z,4.35
2023-01-11T10:01:07.176Z,4.10
2023-01-11T10:02:23.980Z,5.15
2023-01-11T10:04:04.837Z,2.20
2023-01-11T10:05:30.326Z,3.25
2023-01-11T10:06:46.339Z,2.60
2023-01-11T10:18:28.620Z,2.67
2023-01-11T10:18:32.626Z,5.55
2023-01-11T10:18:44.793Z,3.35
2023-01-11T10:20:46.687Z,2.45
2023-01-11T10:21:56.133Z,2.95
2023-01-11T10:23:12.164Z,4.68
2023-01-11T10:24:25.047Z,2.30
2023-01-11T10:25:37.969Z,5.60
2023-01-11T10:26:41.657Z,3.08
2023-01-11T10:27:59.615Z,3.25
2023-01-11T10:29:18.379Z,2.63
2023-01-11T10:30:49.759Z,4.95
2023-01-11T10:32:13.931Z,1.80
2023-01-11T10:33:38.899Z,13.32
2023-01-11T10:35:00.396Z,2.92
2023-01-11T10:36:15.263Z,2.08
2023-01-11T10:37:44.569Z,3.20
2023-01-11T10:39:12.312Z,3.05
2023-01-11T10:40:38.311Z,4.30
2023-01-11T10:41:57.946Z,5.38
2023-01-11T10:43:10.666Z,2.75
2023-01-11T10:44:27.218Z,7.10
2023-01-11T10:45:42.433Z,3.22
2023-01-11T10:46:52.372Z,2.53
2023-01-11T10:47:59.854Z,1.52
2023-01-11T10:49:26.113Z,1.77
2023-01-11T10:50:40.799Z,3.63
2023-01-11T10:51:49.571Z,6.00
2023-01-11T10:53:03.035Z,3.13
2023-01-11T10:54:18.367Z,3.13
2023-01-11T10:55:27.572Z,2.00
2023-01-11T10:57:02.518Z,9.40
2023-01-11T10:58:20.407Z,2.97
2023-01-11T10:59:44.322Z,2.78
2023-01-11T11:01:01.837Z,3.88
2023-01-11T11:02:22.063Z,6.13
2023-01-11T11:03:44.338Z,3.70
2023-01-11T11:05:05.537Z,1.88
2023-01-11T11:06:21.385Z,5.72
2023-01-11T11:07:35.068Z,2.80
2023-01-11T11:08:49.462Z,4.13
2023-01-11T11:10:03.557Z,4.00
2023-01-11T11:11:18.152Z,2.83
2023-01-11T11:12:28.116Z,2.10
2023-01-11T11:13:43.426Z,4.40
2023-01-11T11:14:57.865Z,2.13
2023-01-11T11:16:08.092Z,1.42
2023-01-11T11:17:21.761Z,3.00
2023-01-11T11:18:27.260Z,2.13
2023-01-11T11:19:34.332Z,6.65
2023-01-11T11:20:40.362Z,4.63
2023-01-11T11:21:43.845Z,2.95
2023-01-11T11:22:53.252Z,2.08
2023-01-11T11:24:03.014Z,3.60
2023-01-11T11:25:28.381Z,3.63
2023-01-11T11:26:37.826Z,2.55
2023-01-11T11:27:46.588Z,4.47
2023-01-11T11:29:11.300Z,2.83
2023-01-11T11:30:19.211Z,5.60
2023-01-11T11:31:21.777Z,2.42
2023-01-11T11:32:33.166Z,0.77
2023-01-11T11:33:44.463Z,2.20
2023-01-11T11:34:48.436Z,3.17
2023-01-11T11:36:00.736Z,1.20
2023-01-11T11:37:05.965Z,3.08
2023-01-11T11:38:24.556Z,0.57
2023-01-11T11:39:35.229Z,1.88
2023-01-11T11:40:45.683Z,1.53
2023-01-11T11:41:49.943Z,2.25
2023-01-11T11:43:20.934Z,5.47
2023-01-11T11:44:31.640Z,1.73
2023-01-11T11:45:34.291Z,2.70
2023-01-11T11:46:41.750Z,3.65
2023-01-11T11:47:52.571Z,1.38
2023-01-11T11:49:18.900Z,3.30
2023-01-11T11:50:43.748Z,2.67
2023-01-11T11:51:51.585Z,1.77
2023-01-11T11:52:57.326Z,2.17
2023-01-11T11:54:03.135Z,3.13
2023-01-11T11:55:12.863Z,6.93
2023-01-11T11:56:23.392Z,14.43
2023-01-11T11:57:46.084Z,6.55
2023-01-11T11:59:02.758Z,10.75
2023-01-11T12:00:30.151Z,15.15
2023-01-11T12:01:53.604Z,3.97
2023-01-11T12:04:45.358Z,3.97
2023-01-11T12:06:02.306Z,1.48
2023-01-11T12:07:07.604Z,2.63
2023-01-11T12:08:18.233Z,5.35
2023-01-11T12:09:35.946Z,3.55
2023-01-11T12:11:26.380Z,1.58
2023-01-11T12:12:32.711Z,4.50
2023-01-11T12:13:43.058Z,1.65
2023-01-11T12:15:21.595Z,1.30
2023-01-11T12:16:28.157Z,6.35
2023-01-11T12:17:34.293Z,2.60
2023-01-11T12:18:46.571Z,3.08
2023-01-11T12:19:53.210Z,3.90
2023-01-11T12:20:56.135Z,1.58
2023-01-11T12:22:15.738Z,3.13
2023-01-11T12:23:24.862Z,7.82
2023-01-11T12:24:29.797Z,2.33
2023-01-11T12:25:33.313Z,2.28
2023-01-11T12:26:44.314Z,1.55
2023-01-11T12:27:58.559Z,1.77
2023-01-11T12:29:48.511Z,4.57
2023-01-11T12:31:06.606Z,2.85
2023-01-11T12:32:33.626Z,1.40
2023-01-11T12:33:50.092Z,1.95
2023-01-11T12:35:18.850Z,2.15
2023-01-11T12:36:34.080Z,1.63
2023-01-11T12:37:57.960Z,1.08
2023-01-11T12:39:13.538Z,3.58
2023-01-11T12:40:23.374Z,6.95
2023-01-11T12:41:52.164Z,4.15
2023-01-11T12:43:23.659Z,2.85
2023-01-11T12:44:54.618Z,3.17
2023-01-11T12:46:17.580Z,2.20
2023-01-11T12:47:58.687Z,2.20
2023-01-11T12:49:18.363Z,2.03
2023-01-11T12:50:25.113Z,3.08
2023-01-11T12:51:51.287Z,2.25
2023-01-11T12:53:25.177Z,2.92
2023-01-11T12:54:52.948Z,1.75
2023-01-11T12:56:22.830Z,2.05
2023-01-11T12:57:35.576Z,3.88
2023-01-11T12:58:50.311Z,4.05
2023-01-11T13:00:13.720Z,2.65
2023-01-11T13:01:40.337Z,4.57
2023-01-11T13:03:14.344Z,3.33
2023-01-11T13:04:45.952Z,1.85
2023-01-11T13:06:01.155Z,1.70
2023-01-11T13:07:18.302Z,2.78
2023-01-11T13:08:32.132Z,1.55
2023-01-11T13:09:54.116Z,2.53
2023-01-11T13:12:24.172Z,1.33
2023-01-11T13:13:36.118Z,4.20
2023-01-11T13:14:58.023Z,1.38
2023-01-11T13:17:23.492Z,3.70
2023-01-11T13:18:40.590Z,4.57
2023-01-11T13:19:55.258Z,2.70
2023-01-11T13:21:06.908Z,2.67
2023-01-11T13:22:18.652Z,1.70
2023-01-11T13:24:42.320Z,1.35
2023-01-11T13:25:52.855Z,2.13
2023-01-11T13:27:00.857Z,5.15
2023-01-11T13:28:24.044Z,4.72
2023-01-11T13:29:32.590Z,4.88
2023-01-11T13:30:35.715Z,2.45
2023-01-11T13:31:42.349Z,4.55
2023-01-11T13:32:56.439Z,4.85
2023-01-11T13:34:10.556Z,5.85
2023-01-11T13:35:20.378Z,4.20
2023-01-11T13:36:35.108Z,2.33
2023-01-11T13:37:43.807Z,5.00
2023-01-11T13:38:53.598Z,1.55
2023-01-11T13:40:02.821Z,9.10
2023-01-11T13:41:17.235Z,5.28
2023-01-11T13:42:26.692Z,4.93
2023-01-11T13:43:37.486Z,3.97
2023-01-11T13:44:50.635Z,6.32
2023-01-11T13:46:03.933Z,4.13
2023-01-11T13:47:17.201Z,3.25
2023-01-11T13:48:29.508Z,2.25
2023-01-11T13:50:04.571Z,3.00
2023-01-11T13:51:23.732Z,7.05
2023-01-11T13:52:42.425Z,3.38
2023-01-11T13:53:56.437Z,3.13
2023-01-11T13:55:09.017Z,9.50
2023-01-11T13:56:23.419Z,3.03
2023-01-11T13:57:36.348Z,3.85
2023-01-11T13:58:58.173Z,4.15
2023-01-11T14:00:16.031Z,4.20
2023-01-11T14:01:24.358Z,2.65
2023-01-11T14:02:36.712Z,1.17
2023-01-11T14:03:50.548Z,2.05
2023-01-11T14:04:59.458Z,1.48
2023-01-11T14:06:23.262Z,4.43
2023-01-11T14:07:41.652Z,2.45
2023-01-11T14:09:00.792Z,2.38
2023-01-11T14:10:40.760Z,2.83
2023-01-11T14:11:56.157Z,2.92
2023-01-11T14:13:46.943Z,5.00
2023-01-11T14:15:11.024Z,5.22
2023-01-11T14:16:19.809Z,1.70
2023-01-11T14:17:55.726Z,1.63
2023-01-11T14:19:10.107Z,3.97
2023-01-11T14:20:26.271Z,2.00
2023-01-11T14:21:39.181Z,2.75
2023-01-11T14:22:51.517Z,1.00
2023-01-11T14:24:00.801Z,2.70
2023-01-11T14:25:09.725Z,5.75
2023-01-11T14:26:34.413Z,2.08
2023-01-11T14:28:02.164Z,4.90
2023-01-11T14:29:24.091Z,3.40
2023-01-11T14:31:59.568Z,11.52
2023-01-11T14:33:41.435Z,5.65
2023-01-11T14:35:12.398Z,5.10
2023-01-11T14:36:48.406Z,1.38
2023-01-11T14:38:35.296Z,3.53
2023-01-11T14:39:59.631Z,5.13
2023-01-11T14:41:22.350Z,5.72
2023-01-11T14:42:50.094Z,5.22
2023-01-11T14:44:13.088Z,4.85
2023-01-11T14:45:26.838Z,2.45
2023-01-11T14:46:53.050Z,6.90
2023-01-11T14:48:14.898Z,3.75
2023-01-11T14:49:32.539Z,3.00
2023-01-11T14:50:53.909Z,2.85
2023-01-11T14:52:03.572Z,8.05
2023-01-11T14:53:12.249Z,5.07
2023-01-11T14:54:21.544Z,5.47
2023-01-11T14:55:32.883Z,5.82
2023-01-11T14:56:55.519Z,4.43
2023-01-11T14:58:04.955Z,5.53
2023-01-11T14:59:25.632Z,7.40
2023-01-11T15:01:06.594Z,6.30
2023-01-11T15:02:29.449Z,4.03
2023-01-11T15:03:52.846Z,5.00
2023-01-11T15:05:12.334Z,5.78
2023-01-11T15:06:25.395Z,6.32
2023-01-11T15:07:35.860Z,4.25
2023-01-11T15:08:49.854Z,8.60
2023-01-11T15:09:53.961Z,3.80
2023-01-11T15:11:01.582Z,5.18
2023-01-11T15:12:18.018Z,5.82
2023-01-11T15:13:24.443Z,5.03
2023-01-11T15:14:34.551Z,6.80
2023-01-11T15:15:51.609Z,4.55
2023-01-11T15:17:12.701Z,10.40
2023-01-11T15:18:19.434Z,4.93
2023-01-11T15:19:33.853Z,4.38
2023-01-11T15:20:54.937Z,4.95
2023-01-11T15:22:05.249Z,4.95
2023-01-11T15:23:07.675Z,8.15
2023-01-11T15:24:26.699Z,9.52
2023-01-11T15:25:34.226Z,7.25
2023-01-11T15:26:51.781Z,10.15
2023-01-11T15:27:58.372Z,11.88
2023-01-11T15:29:03.194Z,7.60
2023-01-11T15:30:11.497Z,9.60
2023-01-11T15:31:31.139Z,4.85
2023-01-11T15:32:42.142Z,4.33
2023-01-11T15:33:50.577Z,10.90
2023-01-11T15:34:56.590Z,7.25
2023-01-11T15:36:04.358Z,9.25
2023-01-11T15:37:25.362Z,20.20
2023-01-11T15:38:37.288Z,4.43
2023-01-11T15:39:47.005Z,7.97
2023-01-11T15:40:53.176Z,15.20
2023-01-11T15:42:04.849Z,5.10
2023-01-11T15:43:48.597Z,5.63
2023-01-11T15:45:14.552Z,6.88
2023-01-11T15:47:01.953Z,5.80
2023-01-11T15:48:35.913Z,5.68
2023-01-11T15:50:02.619Z,6.38
2023-01-11T15:51:41.083Z,3.75
2023-01-11T15:53:33.079Z,25.30
2023-01-11T15:55:38.362Z,9.00